createdAt,value
2022-12-25T00:01:39.036Z,12.30
2022-12-25T00:04:05.557Z,24.35
2022-12-25T00:06:32.108Z,17.98
2022-12-25T00:08:58.636Z,17.92
2022-12-25T00:11:25.114Z,21.70
2022-12-25T00:13:51.578Z,23.83
2022-12-25T00:16:25.178Z,15.93
2022-12-25T00:18:52.765Z,12.45
2022-12-25T00:21:20.571Z,21.48
2022-12-25T00:23:47.672Z,16.45
2022-12-25T00:26:16.569Z,14.43
2022-12-25T00:28:43.076Z,12.68
2022-12-25T00:31:15.192Z,9.50
2022-12-25T00:33:43.795Z,24.95
2022-12-25T00:36:11.408Z,9.20
2022-12-25T00:38:39.388Z,13.63
2022-12-25T00:41:07.951Z,20.60
2022-12-25T00:43:34.477Z,14.38
2022-12-25T00:46:03.330Z,14.40
2022-12-25T00:48:30.548Z,11.38
2022-12-25T00:50:59.138Z,14.43
2022-12-25T00:53:26.610Z,21.88
2022-12-25T00:56:02.032Z,11.65
2022-12-25T00:58:31.206Z,12.90
2022-12-25T01:00:58.107Z,14.55
2022-12-25T01:03:25.610Z,13.18
2022-12-25T01:06:01.464Z,13.02
2022-12-25T01:08:30.874Z,16.42
2022-12-25T01:11:00.698Z,15.30
2022-12-25T01:13:28.505Z,13.85
2022-12-25T01:15:55.172Z,11.60
2022-12-25T01:18:23.780Z,16.10
2022-12-25T01:20:50.400Z,13.13
2022-12-25T01:23:17.022Z,16.65
2022-12-25T01:25:43.517Z,13.90
2022-12-25T01:28:09.913Z,20.98
2022-12-25T01:30:36.352Z,16.58
2022-12-25T01:33:02.864Z,10.45
2022-12-25T01:35:29.462Z,9.95
2022-12-25T01:37:55.915Z,19.63
2022-12-25T01:40:22.329Z,18.17
2022-12-25T01:42:48.781Z,12.60
2022-12-25T01:45:34.717Z,15.15
2022-12-25T01:48:05.965Z,9.20
2022-12-25T01:50:34.015Z,13.55
2022-12-25T01:53:00.795Z,15.85
2022-12-25T01:55:27.892Z,14.77
2022-12-25T01:57:54.632Z,16.45
2022-12-25T02:00:21.126Z,13.02
2022-12-25T02:02:48.504Z,15.25
2022-12-25T02:05:27.205Z,14.98
2022-12-25T02:07:54.291Z,9.48
2022-12-25T02:10:20.811Z,14.38
2022-12-25T02:12:48.065Z,13.63
2022-12-25T02:15:17.978Z,13.35
2022-12-25T02:17:57.297Z,17.05
2022-12-25T02:20:48.226Z,10.10
2022-12-25T02:24:00.784Z,14.85
2022-12-25T02:26:30.060Z,13.95
2022-12-25T02:29:45.662Z,13.23
2022-12-25T02:32:31.176Z,12.60
2022-12-25T02:35:09.711Z,9.60
2022-12-25T02:37:48.568Z,13.45
2022-12-25T02:40:24.972Z,16.73
2022-12-25T02:43:17.236Z,15.10
2022-12-25T02:46:18.572Z,15.73
2022-12-25T02:49:11.878Z,13.88
2022-12-25T02:52:02.309Z,19.92
2022-12-25T02:54:53.278Z,8.48
2022-12-25T02:57:43.700Z,14.40
2022-12-25T03:00:29.995Z,14.63
2022-12-25T03:03:17.524Z,13.88
2022-12-25T03:06:03.729Z,20.35
2022-12-25T03:08:34.736Z,11.13
2022-12-25T03:11:22.633Z,14.32
2022-12-25T03:13:55.412Z,10.20
2022-12-25T03:16:40.933Z,10.73
2022-12-25T03:19:26.982Z,10.98
2022-12-25T03:22:14.498Z,8.90
2022-12-25T03:24:59.926Z,13.40
2022-12-25T03:27:29.556Z,10.07
2022-12-25T03:30:19.110Z,16.45
2022-12-25T03:33:23.209Z,13.65
2022-12-25T03:36:20.617Z,9.80
2022-12-25T03:39:28.620Z,12.88
2022-12-25T03:42:18.217Z,12.77
2022-12-25T03:45:35.580Z,10.85
2022-12-25T03:48:23.957Z,20.20
2022-12-25T03:51:18.941Z,10.50
2022-12-25T03:54:12.831Z,11.80
2022-12-25T03:57:00.137Z,9.98
2022-12-25T03:59:45.232Z,7.90
2022-12-25T04:02:30.132Z,11.93
2022-12-25T04:05:15.472Z,8.88
2022-12-25T04:08:00.882Z,10.07
2022-12-25T04:10:45.759Z,13.23
2022-12-25T04:13:30.714Z,11.80
2022-12-25T04:16:15.567Z,14.95
2022-12-25T04:19:00.791Z,11.68
2022-12-25T04:21:45.908Z,12.73
2022-12-25T04:24:31.289Z,13.50
2022-12-25T04:27:16.000Z,11.57
2022-12-25T04:30:00.926Z,12.40
2022-12-25T04:32:45.769Z,11.20
2022-12-25T04:35:30.521Z,8.38
2022-12-25T04:37:57.221Z,13.60
2022-12-25T04:40:23.784Z,9.30
2022-12-25T04:42:51.645Z,8.45
2022-12-25T04:45:18.160Z,8.98
2022-12-25T04:47:44.600Z,8.70
2022-12-25T04:50:11.127Z,7.13
2022-12-25T04:52:39.457Z,8.07
2022-12-25T04:55:07.174Z,7.85
2022-12-25T04:57:33.961Z,7.97
2022-12-25T05:00:00.556Z,7.22
2022-12-25T05:02:27.173Z,10.80
2022-12-25T05:04:53.636Z,11.10
2022-12-25T05:07:20.061Z,10.45
2022-12-25T05:09:46.433Z,9.32
2022-12-25T05:12:13.495Z,7.47
2022-12-25T05:14:40.072Z,16.08
2022-12-25T05:17:07.883Z,7.90
2022-12-25T05:19:34.669Z,9.80
2022-12-25T05:22:01.087Z,6.07
2022-12-25T05:24:28.193Z,11.65
2022-12-25T05:26:54.810Z,10.05
2022-12-25T05:29:21.272Z,5.07
2022-12-25T05:31:47.771Z,9.65
2022-12-25T05:34:14.225Z,10.13
2022-12-25T05:36:40.652Z,5.72
2022-12-25T05:39:07.043Z,11.65
2022-12-25T05:41:34.660Z,7.30
2022-12-25T05:44:01.671Z,13.05
2022-12-25T05:46:28.252Z,11.25
2022-12-25T05:48:54.653Z,10.15
2022-12-25T05:51:21.090Z,7.78
2022-12-25T05:53:47.642Z,8.02
2022-12-25T05:56:14.142Z,4.70
2022-12-25T05:58:40.859Z,7.68
2022-12-25T06:01:20.334Z,8.63
2022-12-25T06:03:46.951Z,6.47
2022-12-25T06:06:14.107Z,10.65
2022-12-25T06:08:40.829Z,4.18
2022-12-25T06:11:08.793Z,5.15
2022-12-25T06:13:36.093Z,5.30
2022-12-25T06:16:07.665Z,5.95
2022-12-25T06:18:38.867Z,5.63
2022-12-25T06:21:13.682Z,7.70
2022-12-25T06:23:40.756Z,6.65
2022-12-25T06:26:12.904Z,7.28
2022-12-25T06:28:39.477Z,7.40
2022-12-25T06:31:11.774Z,6.78
2022-12-25T06:33:38.443Z,4.40
2022-12-25T06:36:25.133Z,5.38
2022-12-25T06:38:52.548Z,7.60
2022-12-25T06:41:24.539Z,8.95
2022-12-25T06:43:53.799Z,5.65
2022-12-25T06:46:22.264Z,3.70
2022-12-25T06:48:49.607Z,3.60
2022-12-25T06:51:17.683Z,7.13
2022-12-25T06:53:44.157Z,6.25
2022-12-25T06:56:15.565Z,6.95
2022-12-25T06:58:46.452Z,4.60
2022-12-25T07:01:20.215Z,6.85
2022-12-25T07:03:50.028Z,6.40
2022-12-25T07:06:16.441Z,9.65
2022-12-25T07:08:43.067Z,6.95
2022-12-25T07:11:09.549Z,7.05
2022-12-25T07:13:35.925Z,9.70
2022-12-25T07:16:03.950Z,6.05
2022-12-25T07:18:31.365Z,6.40
2022-12-25T07:20:59.666Z,6.43
2022-12-25T07:23:26.831Z,5.68
2022-12-25T07:25:58.258Z,5.05
2022-12-25T07:28:25.520Z,4.68
2022-12-25T07:30:52.021Z,7.10
2022-12-25T07:33:18.617Z,4.88
2022-12-25T07:35:45.236Z,15.57
2022-12-25T07:38:11.686Z,8.65
2022-12-25T07:40:38.565Z,6.15
2022-12-25T07:43:05.226Z,7.85
2022-12-25T07:45:31.755Z,4.65
2022-12-25T07:48:04.332Z,5.95
2022-12-25T07:50:31.515Z,8.88
2022-12-25T07:52:57.921Z,4.68
2022-12-25T07:55:24.362Z,7.07
2022-12-25T07:57:50.842Z,6.22
2022-12-25T08:00:17.810Z,5.90
2022-12-25T08:02:44.500Z,9.63
2022-12-25T08:05:11.207Z,4.97
2022-12-25T08:07:37.658Z,7.13
2022-12-25T08:10:04.462Z,7.28
2022-12-25T08:12:30.893Z,8.73
2022-12-25T08:14:57.350Z,37.33
2022-12-25T08:17:23.724Z,10.00
2022-12-25T08:19:50.156Z,69.57
2022-12-25T08:22:16.646Z,86.63
2022-12-25T08:24:43.093Z,7.82
2022-12-25T08:27:09.572Z,13.57
2022-12-25T08:29:35.966Z,32.08
2022-12-25T08:32:02.488Z,59.80
2022-12-25T08:34:28.922Z,45.13
2022-12-25T08:36:55.372Z,32.08
2022-12-25T08:39:21.741Z,40.35
2022-12-25T08:41:48.117Z,32.92
2022-12-25T08:44:14.600Z,30.80
2022-12-25T08:46:41.025Z,120.53
2022-12-25T08:49:07.965Z,119.25
2022-12-25T08:51:34.492Z,69.97
2022-12-25T08:54:01.055Z,73.93
2022-12-25T08:56:28.024Z,42.17
2022-12-25T08:58:54.520Z,70.10
2022-12-25T09:01:22.325Z,22.90
2022-12-25T09:03:48.888Z,30.73
2022-12-25T09:06:16.692Z,38.13
2022-12-25T09:08:49.167Z,28.67
2022-12-25T09:11:17.869Z,76.63
2022-12-25T09:13:44.530Z,32.78
2022-12-25T09:16:14.605Z,35.88
2022-12-25T09:18:41.133Z,68.30
2022-12-25T09:21:10.952Z,24.35
2022-12-25T09:23:37.394Z,13.60
2022-12-25T09:26:06.253Z,13.55
2022-12-25T09:28:33.346Z,83.40
2022-12-25T09:30:59.930Z,49.88
2022-12-25T09:33:26.713Z,19.13
2022-12-25T09:35:58.496Z,9.55
2022-12-25T09:38:25.505Z,17.77
2022-12-25T09:41:33.353Z,7.57
2022-12-25T09:44:05.556Z,4.72
2022-12-25T09:46:42.179Z,4.47
2022-12-25T09:49:21.738Z,11.45
2022-12-25T09:51:55.687Z,21.35
2022-12-25T09:54:27.489Z,11.88
2022-12-25T09:56:53.886Z,14.02
2022-12-25T09:59:25.847Z,9.57
2022-12-25T10:02:00.696Z,7.88
2022-12-25T10:04:57.471Z,9.88
2022-12-25T10:07:59.513Z,20.27
2022-12-25T10:10:39.316Z,12.52
2022-12-25T10:13:36.984Z,36.08
2022-12-25T10:16:15.603Z,11.93
2022-12-25T10:18:57.021Z,20.13
2022-12-25T10:21:23.916Z,32.65
2022-12-25T10:24:05.446Z,25.55
2022-12-25T10:26:33.421Z,31.65
2022-12-25T10:29:11.844Z,76.00
2022-12-25T10:31:38.272Z,33.70
2022-12-25T10:34:07.082Z,48.92
2022-12-25T10:36:34.205Z,94.25
2022-12-25T10:39:00.679Z,67.07
2022-12-25T10:41:49.882Z,105.85
2022-12-25T10:44:24.375Z,40.08
2022-12-25T10:46:53.583Z,23.58
2022-12-25T10:49:22.793Z,162.38
2022-12-25T10:51:49.859Z,68.35
2022-12-25T10:54:33.352Z,19.13
2022-12-25T10:57:08.826Z,43.47
2022-12-25T11:00:00.314Z,18.08
2022-12-25T11:02:29.457Z,19.73
2022-12-25T11:05:06.194Z,54.13
2022-12-25T11:07:46.542Z,59.45
2022-12-25T11:10:30.899Z,43.78
2022-12-25T11:12:59.139Z,45.63
2022-12-25T11:15:34.275Z,82.88
2022-12-25T11:18:01.113Z,38.53
2022-12-25T11:20:27.619Z,78.30
2022-12-25T11:22:54.103Z,73.53
2022-12-25T11:25:26.160Z,98.50
2022-12-25T11:28:05.679Z,57.35
2022-12-25T11:30:33.674Z,79.25
2022-12-25T11:33:06.679Z,91.38
2022-12-25T11:35:45.791Z,82.88
2022-12-25T11:38:12.161Z,242.65
2022-12-25T11:40:46.879Z,145.43
2022-12-25T11:43:21.712Z,152.70
2022-12-25T11:46:00.116Z,88.47
2022-12-25T11:48:36.659Z,118.53
2022-12-25T11:51:06.180Z,73.25
2022-12-25T11:53:44.489Z,61.60
2022-12-25T11:56:17.241Z,34.65
2022-12-25T11:58:54.092Z,68.82
2022-12-25T12:01:48.838Z,117.45
2022-12-25T12:04:29.403Z,33.28
2022-12-25T12:07:08.794Z,22.35
2022-12-25T12:09:56.499Z,106.55
2022-12-25T12:12:32.112Z,18.45
2022-12-25T12:15:16.791Z,11.18
2022-12-25T12:17:43.212Z,31.88
2022-12-25T12:20:27.593Z,102.22
2022-12-25T12:22:54.335Z,34.47
2022-12-25T12:25:21.837Z,62.40
2022-12-25T12:28:04.448Z,58.20
2022-12-25T12:30:34.696Z,52.75
2022-12-25T12:33:05.587Z,128.77
2022-12-25T12:35:35.053Z,55.17
2022-12-25T12:38:10.386Z,18.67
2022-12-25T12:40:51.676Z,11.27
2022-12-25T12:43:37.683Z,36.95
2022-12-25T12:46:08.363Z,61.58
2022-12-25T12:48:41.525Z,76.50
2022-12-25T12:51:11.531Z,21.77
2022-12-25T12:53:40.633Z,16.95
2022-12-25T12:56:16.961Z,35.90
2022-12-25T12:58:52.142Z,14.73
2022-12-25T13:01:27.887Z,15.90
2022-12-25T13:04:03.653Z,8.48
2022-12-25T13:06:40.255Z,79.15
2022-12-25T13:09:19.692Z,18.88
2022-12-25T13:11:46.990Z,20.10
2022-12-25T13:14:19.671Z,121.63
2022-12-25T13:16:51.473Z,93.55
2022-12-25T13:19:23.935Z,31.55
2022-12-25T13:21:55.863Z,136.90
2022-12-25T13:24:25.194Z,24.00
2022-12-25T13:26:51.718Z,59.25
2022-12-25T13:29:35.476Z,275.65
2022-12-25T13:32:05.198Z,86.78
2022-12-25T13:34:36.057Z,122.85
2022-12-25T13:37:17.826Z,74.18
2022-12-25T13:40:06.387Z,68.63
2022-12-25T13:42:41.941Z,86.50
2022-12-25T13:45:14.412Z,88.18
2022-12-25T13:47:54.869Z,64.93
2022-12-25T13:50:26.483Z,37.83
2022-12-25T13:52:54.220Z,85.90
2022-12-25T13:55:23.750Z,68.85
2022-12-25T13:57:58.972Z,67.50
2022-12-25T14:00:33.329Z,135.25
2022-12-25T14:03:00.241Z,152.10
2022-12-25T14:05:42.392Z,148.82
2022-12-25T14:08:21.735Z,91.65
2022-12-25T14:10:50.961Z,38.97
2022-12-25T14:13:19.756Z,29.35
2022-12-25T14:15:47.940Z,100.65
2022-12-25T14:18:16.705Z,30.67
2022-12-25T14:21:01.154Z,24.30
2022-12-25T14:23:39.203Z,11.13
2022-12-25T14:26:05.806Z,11.13
2022-12-25T14:28:34.145Z,28.98
2022-12-25T14:31:02.316Z,15.05
2022-12-25T14:33:35.184Z,50.35
2022-12-25T14:36:01.861Z,53.38
2022-12-25T14:38:34.756Z,17.25
2022-12-25T14:41:04.277Z,18.73
2022-12-25T14:43:32.275Z,28.80
2022-12-25T14:46:01.393Z,147.80
2022-12-25T14:48:32.546Z,133.30
2022-12-25T14:51:02.440Z,90.38
2022-12-25T14:53:34.754Z,43.83
2022-12-25T14:56:01.611Z,93.72
2022-12-25T14:58:31.159Z,25.60
2022-12-25T15:01:00.233Z,24.45
2022-12-25T15:03:31.114Z,20.63
2022-12-25T15:06:20.592Z,19.90
2022-12-25T15:09:01.832Z,24.02
2022-12-25T15:11:28.780Z,12.35
2022-12-25T15:13:55.687Z,7.47
2022-12-25T15:16:25.342Z,17.77
2022-12-25T15:18:53.646Z,37.17
2022-12-25T15:21:27.532Z,30.95
2022-12-25T15:23:55.153Z,16.55
2022-12-25T15:26:21.740Z,59.38
2022-12-25T15:28:48.265Z,9.55
2022-12-25T15:31:21.841Z,11.85
2022-12-25T15:33:49.235Z,25.88
2022-12-25T15:36:15.713Z,12.80
2022-12-25T15:38:42.501Z,8.25
2022-12-25T15:41:54.958Z,8.15
2022-12-25T15:44:22.343Z,7.65
2022-12-25T15:46:49.020Z,9.75
2022-12-25T15:49:16.360Z,7.10
2022-12-25T15:51:43.766Z,13.40
2022-12-25T15:54:10.561Z,11.65
2022-12-25T15:56:50.064Z,12.48
2022-12-25T15:59:17.864Z,8.13
2022-12-25T16:01:50.292Z,11.00
2022-12-25T16:04:17.481Z,9.20
2022-12-25T16:06:43.915Z,10.65
2022-12-25T16:09:14.892Z,13.18
2022-12-25T16:11:42.273Z,10.48
2022-12-25T16:14:09.620Z,9.10
2022-12-25T16:16:36.113Z,9.05
2022-12-25T16:19:02.759Z,9.32
2022-12-25T16:21:37.794Z,8.25
2022-12-25T16:24:04.565Z,8.82
2022-12-25T16:26:33.161Z,9.50
2022-12-25T16:29:06.556Z,8.88
2022-12-25T16:31:34.108Z,10.02
2022-12-25T16:34:01.253Z,8.90
2022-12-25T16:36:27.674Z,7.10
2022-12-25T16:38:54.258Z,9.55
2022-12-25T16:41:21.690Z,11.20
2022-12-25T16:43:48.305Z,10.35
2022-12-25T16:46:17.703Z,10.10
2022-12-25T16:48:44.989Z,11.90
2022-12-25T16:51:17.274Z,8.40
2022-12-25T16:53:44.443Z,9.93
2022-12-25T16:56:14.655Z,8.98
2022-12-25T16:58:42.183Z,9.32
